Etusivu
METAR-TAF:

METAR-TAF

Lentoasemat :

Mexicali, Meksiko

Leveyspiiri: 32-37-50N, Pituuspiiri: 115-14-30W, korkeus merenpinnasta: 22 m

Tämänhetkinen sää

Tämä raportti tehtiin 1 tunti ja 7 minuuttia sitten, kello 04.50 UTC
Tuuli 8 kn lännestä/luoteesta
Lämpötila 20°C
Kosteus 37%
Ilmanpaine 1009 hPa
Näkyvyys: 16.1 km
selkeää

METAR: MMML 040450Z 29008KT 10SM SKC 20/05 A2979

Aika: 23:57 (05:57 UTC)

Sääennuste

Tämä raportti tehtiin 1 tunti ja 44 minuuttia sitten, kello 04.13 UTC
Ennuste voimassa 04. päivästä klo 06 UTC - 05. päivään klo 06 UTC
Tuuli 6 kn lännestä/luoteesta
Näkyvyys: 10 km
selkeää
From 04. päivästä klo 1800 UTC
Tuuli 10 kn lännestä/lounaasta
Näkyvyys: 10 km
Hajanaisia pilviä 25000 ft:n korkeudessa
From 05. päivästä klo 0500 UTC
Tuuli 5 kn lännestä
Näkyvyys: 10 km
selkeää

TAF: MMML 040413Z 0406/0506 29006KT P6SM SKC FM041800 24010KT P6SM SCT250 FM050500 28005KT P6SM SKC

Säähavainnot ja -ennusteet yli 4000 lentoasemalta (METAR- ja TAF-raportit).

Käytössä olevat sääasemat on merkitty karttaan keltaisilla ja punaisilla pisteillä.

Aseta hiiri pisteen päälle nähdäksesi sääaseman nimen.

Klikkaa sitten nähdäksesi säähavainnot ja -ennusteet.

Kartan vaihtaminen: klikkaa mustalla rastilla varustettuja vihreitä pisteitä, niin voit zoomata sisään; viivalla varustettua vihreää pistettä, niin voit zoomata ulos tai vihreitä nuolia, niin pääset viereisille kartoille.


METAR-TAF: